createdAt,value
2018-02-08T17:35:09.600Z,1012.87
2018-02-08T17:36:09.620Z,1012.90
2018-02-08T17:37:09.596Z,1012.87
2018-02-08T17:38:10.011Z,1012.88
2018-02-08T17:39:09.595Z,1012.89
2018-02-08T17:40:09.561Z,1012.85
2018-02-08T17:41:09.753Z,1012.86
2018-02-08T17:42:09.419Z,1012.86
2018-02-08T17:43:09.393Z,1012.84
2018-02-08T17:44:09.559Z,1012.85
2018-02-08T17:45:09.379Z,1012.88
2018-02-08T17:46:09.294Z,1012.85
2018-02-08T17:47:09.315Z,1012.84
2018-02-08T17:48:09.612Z,1012.80
2018-02-08T17:50:09.184Z,1012.83
2018-02-08T17:52:09.292Z,1012.83
2018-02-08T17:53:09.159Z,1012.78
2018-02-08T17:54:09.090Z,1012.75
2018-02-08T17:55:09.373Z,1012.80
2018-02-08T17:57:09.174Z,1012.75
2018-02-08T17:58:09.091Z,1012.76
2018-02-08T17:59:08.975Z,1012.75
2018-02-08T18:00:08.945Z,1012.72
2018-02-08T18:02:09.516Z,1012.73
2018-02-08T18:03:08.866Z,1012.71
2018-02-08T18:04:08.902Z,1012.73
2018-02-08T18:05:08.821Z,1012.73
2018-02-08T18:06:08.796Z,1012.72
2018-02-08T18:08:09.039Z,1012.77
2018-02-08T18:09:08.735Z,1012.75
2018-02-08T18:10:08.720Z,1012.76
2018-02-08T18:11:08.670Z,1012.76
2018-02-08T18:12:08.820Z,1012.77
2018-02-08T18:13:08.820Z,1012.77
2018-02-08T18:14:08.964Z,1012.75
2018-02-08T18:15:08.637Z,1012.75
2018-02-08T18:16:08.568Z,1012.76
2018-02-08T18:17:08.536Z,1012.71
2018-02-08T18:18:08.487Z,1012.71
2018-02-08T18:19:08.463Z,1012.74
2018-02-08T18:20:08.430Z,1012.74
2018-02-08T18:21:08.464Z,1012.71
2018-02-08T18:22:08.386Z,1012.73
2018-02-08T18:23:08.406Z,1012.68
2018-02-08T18:24:08.376Z,1012.68
2018-02-08T18:25:08.381Z,1012.65
2018-02-08T18:26:08.528Z,1012.65
2018-02-08T18:27:08.448Z,1012.62
2018-02-08T18:28:08.373Z,1012.63
2018-02-08T18:29:08.213Z,1012.64
2018-02-08T18:30:08.318Z,1012.64
2018-02-08T18:31:08.427Z,1012.62
2018-02-08T18:32:08.125Z,1012.61
2018-02-08T18:33:08.099Z,1012.68
2018-02-08T18:34:08.208Z,1012.60
2018-02-08T18:35:08.071Z,1012.65
2018-02-08T18:36:08.023Z,1012.63
2018-02-08T18:37:07.997Z,1012.64
2018-02-08T18:38:07.971Z,1012.66
2018-02-08T18:39:07.994Z,1012.62
2018-02-08T18:40:09.193Z,1012.63
2018-02-08T18:41:07.893Z,1012.63
2018-02-08T18:42:07.863Z,1012.59
2018-02-08T18:43:07.838Z,1012.60
2018-02-08T18:44:07.862Z,1012.62
2018-02-08T18:45:07.787Z,1012.60
2018-02-08T18:46:07.761Z,1012.62
2018-02-08T18:47:07.735Z,1012.62
2018-02-08T18:48:07.712Z,1012.60
2018-02-08T18:49:07.682Z,1012.62
2018-02-08T18:50:07.963Z,1012.58
2018-02-08T18:51:07.633Z,1012.59
2018-02-08T18:52:07.660Z,1012.59
2018-02-08T18:53:07.587Z,1012.61
2018-02-08T18:54:07.554Z,1012.60
2018-02-08T18:55:07.528Z,1012.61
2018-02-08T18:56:07.499Z,1012.59
2018-02-08T18:57:07.784Z,1012.63
2018-02-08T18:58:07.471Z,1012.60
2018-02-08T18:59:07.424Z,1012.59
2018-02-08T19:00:07.420Z,1012.56
2018-02-08T19:01:07.370Z,1012.58
2018-02-08T19:02:07.344Z,1012.58
2018-02-08T19:03:07.318Z,1012.60
2018-02-08T19:04:07.591Z,1012.62
2018-02-08T19:05:07.266Z,1012.61
2018-02-08T19:06:07.244Z,1012.64
2018-02-08T19:07:07.216Z,1012.60
2018-02-08T19:08:07.185Z,1012.60
2018-02-08T19:09:07.209Z,1012.62
2018-02-08T19:10:07.135Z,1012.60
2018-02-08T19:11:07.412Z,1012.59
2018-02-08T19:12:07.083Z,1012.62
2018-02-08T19:13:07.057Z,1012.58
2018-02-08T19:14:07.322Z,1012.61
2018-02-08T19:15:07.000Z,1012.62
2018-02-08T19:16:06.979Z,1012.63
2018-02-08T19:17:06.955Z,1012.65
2018-02-08T19:18:07.231Z,1012.67
2018-02-08T19:19:06.905Z,1012.67
2018-02-08T19:20:06.873Z,1012.72
2018-02-08T19:23:06.795Z,1012.73
2018-02-08T19:24:06.829Z,1012.71
2018-02-08T19:25:07.054Z,1012.67
2018-02-08T19:26:06.722Z,1012.68
2018-02-08T19:27:06.992Z,1012.64
2018-02-08T19:28:06.677Z,1012.62
2018-02-08T19:29:06.632Z,1012.64
2018-02-08T19:30:06.603Z,1012.63
2018-02-08T19:31:06.880Z,1012.64
2018-02-08T19:32:06.553Z,1012.61
2018-02-08T19:33:06.657Z,1012.57
2018-02-08T19:34:06.496Z,1012.61
2018-02-08T19:35:06.471Z,1012.57
2018-02-08T19:36:06.445Z,1012.57
2018-02-08T19:37:06.672Z,1012.56
2018-02-08T19:38:06.399Z,1012.59
2018-02-08T19:40:06.387Z,1012.58
2018-02-08T19:41:06.307Z,1012.59
2018-02-08T19:42:06.285Z,1012.58
2018-02-08T19:43:06.556Z,1012.59
2018-02-08T19:44:06.230Z,1012.64
2018-02-08T19:47:06.311Z,1012.59
2018-02-08T19:48:06.207Z,1012.54
2018-02-08T19:49:06.409Z,1012.55
2018-02-08T19:50:06.081Z,1012.56
2018-02-08T19:51:06.150Z,1012.53
2018-02-08T19:53:05.999Z,1012.58
2018-02-08T19:55:06.245Z,1012.55
2018-02-08T19:57:06.180Z,1012.55
2018-02-08T19:59:05.957Z,1012.58
2018-02-08T20:00:05.807Z,1012.54
2018-02-08T20:01:06.361Z,1012.58
2018-02-08T20:02:05.752Z,1012.54
2018-02-08T20:03:05.721Z,1012.53
2018-02-08T20:04:05.692Z,1012.54
2018-02-08T20:05:06.096Z,1012.58
2018-02-08T20:06:06.892Z,1012.49
2018-02-08T20:07:05.914Z,1012.48
2018-02-08T20:08:05.589Z,1012.48
2018-02-08T20:09:05.555Z,1012.51
2018-02-08T20:10:05.533Z,1012.55
2018-02-08T20:11:05.520Z,1012.53
2018-02-08T20:12:05.503Z,1012.53
2018-02-08T20:13:05.659Z,1012.49
2018-02-08T20:14:06.249Z,1012.50
2018-02-08T20:15:05.473Z,1012.50
2018-02-08T20:16:05.655Z,1012.53
2018-02-08T20:17:05.433Z,1012.49
2018-02-08T20:18:05.337Z,1012.51
2018-02-08T20:19:05.299Z,1012.47
2018-02-08T20:20:05.586Z,1012.46
2018-02-08T20:21:05.297Z,1012.47
2018-02-08T20:22:06.547Z,1012.47
2018-02-08T20:23:05.234Z,1012.46
2018-02-08T20:24:05.249Z,1012.45
2018-02-08T20:25:05.159Z,1012.46
2018-02-08T20:26:05.144Z,1012.45
2018-02-08T20:27:05.378Z,1012.42
2018-02-08T20:28:05.061Z,1012.45
2018-02-08T20:29:05.020Z,1012.40
2018-02-08T20:30:04.983Z,1012.38
2018-02-08T20:31:04.956Z,1012.38
2018-02-08T20:32:04.937Z,1012.38
2018-02-08T20:33:04.905Z,1012.37
2018-02-08T20:34:05.125Z,1012.39
2018-02-08T20:35:04.858Z,1012.32
2018-02-08T20:36:04.820Z,1012.39
2018-02-08T20:37:04.794Z,1012.39
2018-02-08T20:38:04.763Z,1012.41
2018-02-08T20:39:04.737Z,1012.39
2018-02-08T20:40:04.710Z,1012.42
2018-02-08T20:41:04.992Z,1012.41
2018-02-08T20:42:04.720Z,1012.41
2018-02-08T20:43:04.636Z,1012.42
2018-02-08T20:44:04.612Z,1012.39
2018-02-08T20:45:04.575Z,1012.40
2018-02-08T20:46:04.545Z,1012.36
2018-02-08T20:47:04.520Z,1012.36
2018-02-08T20:48:04.790Z,1012.34
2018-02-08T20:49:04.461Z,1012.35
2018-02-08T20:50:04.436Z,1012.35
2018-02-08T20:51:04.416Z,1012.33
2018-02-08T20:52:04.379Z,1012.32
2018-02-08T20:53:04.363Z,1012.31
2018-02-08T20:54:04.631Z,1012.32
2018-02-08T20:55:04.298Z,1012.32
2018-02-08T20:56:04.273Z,1012.34
2018-02-08T20:57:04.320Z,1012.32
2018-02-08T20:58:04.212Z,1012.34
2018-02-08T20:59:04.185Z,1012.34
2018-02-08T21:00:04.157Z,1012.37
2018-02-08T21:01:04.430Z,1012.35
2018-02-08T21:02:04.102Z,1012.33
2018-02-08T21:03:04.166Z,1012.33
2018-02-08T21:04:04.049Z,1012.33
2018-02-08T21:05:04.033Z,1012.28
2018-02-08T21:06:04.030Z,1012.30
2018-02-08T21:07:04.269Z,1012.28
2018-02-08T21:08:03.998Z,1012.26
2018-02-08T21:09:03.908Z,1012.25
2018-02-08T21:10:03.878Z,1012.29
2018-02-08T21:11:03.861Z,1012.25
2018-02-08T21:12:37.404Z,1012.25
2018-02-08T21:13:03.793Z,1012.26
2018-02-08T21:14:03.772Z,1012.24
2018-02-08T21:15:04.023Z,1012.26
2018-02-08T21:16:03.711Z,1012.26
2018-02-08T21:17:03.683Z,1012.27
2018-02-08T21:18:03.692Z,1012.26
2018-02-08T21:19:03.933Z,1012.25
2018-02-08T21:20:03.603Z,1012.26
2018-02-08T21:21:03.571Z,1012.20
2018-02-08T21:22:03.543Z,1012.19
2018-02-08T21:23:03.514Z,1012.18
2018-02-08T21:24:03.652Z,1012.17
2018-02-08T21:25:03.938Z,1012.18
2018-02-08T21:26:03.440Z,1012.12
2018-02-08T21:27:03.411Z,1012.12
2018-02-08T21:28:03.380Z,1012.14
2018-02-08T21:29:03.351Z,1012.14
2018-02-08T21:30:03.318Z,1012.13
2018-02-08T21:32:03.262Z,1012.08
2018-02-08T21:34:03.853Z,1012.07
2018-02-08T21:35:03.179Z,1012.08
2018-02-08T21:36:03.152Z,1012.10
2018-02-08T21:37:03.175Z,1012.08
2018-02-08T21:38:03.143Z,1012.08
2018-02-08T21:39:03.063Z,1012.08
2018-02-08T21:40:03.037Z,1012.03
2018-02-08T21:41:03.260Z,1012.08
2018-02-08T21:42:02.978Z,1012.02
2018-02-08T21:43:02.951Z,1012.02
2018-02-08T21:44:02.923Z,1012.05
2018-02-08T21:45:02.894Z,1012.04
2018-02-08T21:46:02.867Z,1012.01
2018-02-08T21:47:02.837Z,1012.00
2018-02-08T21:48:03.216Z,1012.02
2018-02-08T21:49:02.781Z,1012.01
2018-02-08T21:50:02.752Z,1012.05
2018-02-08T21:51:02.723Z,1012.02
2018-02-08T21:52:02.695Z,1011.96
2018-02-08T21:53:02.677Z,1012.00
2018-02-08T21:54:02.642Z,1011.98
2018-02-08T21:55:02.915Z,1012.01
2018-02-08T21:56:02.581Z,1012.02
2018-02-08T21:57:02.555Z,1012.00
2018-02-08T21:58:02.575Z,1011.98
2018-02-08T21:59:02.496Z,1011.96
2018-02-08T22:00:02.466Z,1011.95
2018-02-08T22:01:02.440Z,1011.91
2018-02-08T22:02:02.718Z,1011.89
2018-02-08T22:03:02.432Z,1011.92
2018-02-08T22:04:02.356Z,1011.88
2018-02-08T22:05:02.325Z,1011.89
2018-02-08T22:06:02.299Z,1011.92
2018-02-08T22:07:02.271Z,1011.91
2018-02-08T22:08:02.249Z,1011.95
2018-02-08T22:09:02.508Z,1011.91
2018-02-08T22:10:02.232Z,1011.94
2018-02-08T22:11:02.172Z,1011.93
2018-02-08T22:12:02.129Z,1011.94
2018-02-08T22:13:02.102Z,1011.94
2018-02-08T22:14:02.068Z,1011.94
2018-02-08T22:15:02.339Z,1011.94
2018-02-08T22:16:02.010Z,1011.94
2018-02-08T22:17:01.981Z,1011.94
2018-02-08T22:18:01.951Z,1011.98
2018-02-08T22:19:01.981Z,1012.02
2018-02-08T22:20:01.898Z,1012.00
2018-02-08T22:21:01.898Z,1011.98
2018-02-08T22:22:01.838Z,1011.99
2018-02-08T22:23:01.812Z,1012.02
2018-02-08T22:24:01.839Z,1011.99
2018-02-08T22:25:01.752Z,1012.03
2018-02-08T22:26:01.723Z,1011.98
2018-02-08T22:27:01.944Z,1011.99
2018-02-08T22:28:01.711Z,1012.00
2018-02-08T22:29:01.636Z,1012.00
2018-02-08T22:30:01.614Z,1011.97
2018-02-08T22:31:01.581Z,1011.93
2018-02-08T22:32:01.554Z,1011.95
2018-02-08T22:33:01.826Z,1011.96
2018-02-08T22:34:01.494Z,1011.96
2018-02-08T22:35:01.462Z,1011.95
2018-02-08T22:36:01.436Z,1011.95
2018-02-08T22:37:01.408Z,1011.94
2018-02-08T22:38:01.394Z,1011.93
2018-02-08T22:39:01.649Z,1011.92
2018-02-08T22:40:01.321Z,1011.92
2018-02-08T22:41:01.291Z,1011.89
2018-02-08T22:42:01.267Z,1011.90
2018-02-08T22:43:01.233Z,1011.89
2018-02-08T22:44:01.206Z,1011.95
2018-02-08T22:45:01.477Z,1011.89
2018-02-08T22:46:01.152Z,1011.87
2018-02-08T22:47:01.120Z,1011.86
2018-02-08T22:48:01.092Z,1011.88
2018-02-08T22:49:01.068Z,1011.85
2018-02-08T22:50:01.036Z,1011.85
2018-02-08T22:51:01.004Z,1011.80
2018-02-08T22:52:01.227Z,1011.80
2018-02-08T22:53:00.945Z,1011.75
2018-02-08T22:54:00.926Z,1011.78
2018-02-08T22:55:00.889Z,1011.76
2018-02-08T22:56:00.863Z,1011.78
2018-02-08T22:57:00.833Z,1011.78
2018-02-08T22:58:00.809Z,1011.73
2018-02-08T22:59:01.076Z,1011.72
2018-02-08T23:00:00.743Z,1011.74
2018-02-08T23:01:00.730Z,1011.73
2018-02-08T23:02:00.691Z,1011.75
2018-02-08T23:03:00.658Z,1011.70
2018-02-08T23:04:00.630Z,1011.73
2018-02-08T23:05:00.597Z,1011.69
2018-02-08T23:06:00.877Z,1011.69
2018-02-08T23:07:00.542Z,1011.66
2018-02-08T23:08:00.531Z,1011.66
2018-02-08T23:09:00.485Z,1011.65
2018-02-08T23:10:00.456Z,1011.67
2018-02-08T23:11:00.427Z,1011.66
2018-02-08T23:13:00.376Z,1011.62
2018-02-08T23:14:00.642Z,1011.65
2018-02-08T23:15:00.312Z,1011.68
2018-02-08T23:16:00.280Z,1011.64
2018-02-08T23:17:00.250Z,1011.67
2018-02-08T23:18:00.227Z,1011.68
2018-02-08T23:19:00.197Z,1011.67
2018-02-08T23:20:00.475Z,1011.65
2018-02-08T23:21:00.385Z,1011.66
2018-02-08T23:22:00.117Z,1011.65
2018-02-08T23:23:00.078Z,1011.68
2018-02-08T23:24:00.049Z,1011.66
2018-02-08T23:25:00.026Z,1011.65
2018-02-08T23:25:59.990Z,1011.62
2018-02-08T23:26:59.962Z,1011.62
2018-02-08T23:28:00.241Z,1011.63
2018-02-08T23:28:59.904Z,1011.59
2018-02-08T23:29:59.873Z,1011.61
2018-02-08T23:30:59.846Z,1011.56
2018-02-08T23:31:59.816Z,1011.54
2018-02-08T23:32:59.787Z,1011.54
2018-02-08T23:34:00.010Z,1011.52
2018-02-08T23:34:59.729Z,1011.53
2018-02-08T23:35:59.701Z,1011.51
2018-02-08T23:36:59.672Z,1011.51
2018-02-08T23:37:59.649Z,1011.53
2018-02-08T23:38:59.624Z,1011.54
2018-02-08T23:39:59.888Z,1011.51
2018-02-08T23:40:59.605Z,1011.54
2018-02-08T23:41:59.527Z,1011.54
2018-02-08T23:42:59.496Z,1011.56
2018-02-08T23:43:59.568Z,1011.59
2018-02-08T23:44:59.440Z,1011.61
2018-02-08T23:45:59.716Z,1011.59
2018-02-08T23:46:59.379Z,1011.57
2018-02-08T23:47:59.355Z,1011.57
2018-02-08T23:48:59.324Z,1011.56
2018-02-08T23:49:59.396Z,1011.53
2018-02-08T23:50:59.268Z,1011.52
2018-02-08T23:51:59.534Z,1011.50
2018-02-08T23:52:59.209Z,1011.52
2018-02-08T23:53:59.184Z,1011.48
2018-02-08T23:54:59.146Z,1011.49
2018-02-08T23:55:59.120Z,1011.50
2018-02-08T23:56:59.088Z,1011.47
2018-02-08T23:57:59.367Z,1011.45
2018-02-08T23:58:59.033Z,1011.46
2018-02-08T23:59:59.003Z,1011.49
